Time;durP1;ratioP1;P1;durP2;ratioP2;P2;SDS_P1;SDS_P2;PMS_P1;PMS_P2;Temp;Humidity;BMP_temperature;BMP_pressure;BME280_temperature;BME280_humidity;BME280_pressure;Samples;Min_cycle;Max_cycle;Signal;HPM_P1;HPM_P2
2022/09/18 13:38:52;;;;;;;;;2.67;2.33;;;;;20.02;39.28;101208.38;5089249;27;45474;-58
2022/09/18 13:41:18;;;;;;;;;1.50;1.50;;;;;20.16;39.46;101182.59;5071441;27;45386;-59
2022/09/18 13:43:50;;;;;;;;;1.00;1.00;;;;;20.49;37.85;101211.53;5068671;28;45499;-60
2022/09/18 13:46:33;;;;;;;;;3.00;3.00;;;;;20.72;37.80;101207.34;5059318;28;45489;-59
2022/09/18 13:49:02;;;;;;;;;1.00;1.00;;;;;20.86;37.18;101209.91;5052578;28;45368;-59
2022/09/18 13:51:35;;;;;;;;;3.00;3.00;;;;;20.94;37.72;101204.88;5059800;28;45676;-60
2022/09/18 13:54:12;;;;;;;;;1.25;1.25;;;;;21.05;39.61;101203.28;5052367;28;45526;-63
2022/09/18 13:57:13;;;;;;;;;3.50;2.50;;;;;21.02;37.79;101212.38;5063475;28;45691;-62
2022/09/18 13:59:43;;;;;;;;;2.00;2.00;;;;;20.95;37.63;101201.28;5059717;27;45466;-59
2022/09/18 14:02:29;;;;;;;;;1.00;1.00;;;;;20.75;36.13;101196.44;5061119;27;45459;-64
2022/09/18 14:05:24;;;;;;;;;1.75;1.75;;;;;20.58;37.29;101205.63;5063622;27;45481;-61
2022/09/18 14:07:56;;;;;;;;;1.75;1.75;;;;;20.42;36.99;101178.19;5037851;28;45575;-61
2022/09/18 14:10:32;;;;;;;;;2.00;2.00;;;;;20.34;37.77;101181.38;5040872;28;46170;-62
2022/09/18 14:15:56;;;;;;;;;2.00;2.00;;;;;20.22;37.73;101190.19;5041241;28;45351;-60
2022/09/18 14:18:32;;;;;;;;;2.50;2.00;;;;;20.14;38.09;101176.47;5035863;28;45472;-63
2022/09/18 14:21:17;;;;;;;;;2.00;2.00;;;;;20.02;37.48;101173.66;5034760;28;46225;-61
2022/09/18 14:23:45;;;;;;;;;3.50;3.50;;;;;19.99;37.45;101178.38;5038555;28;45528;-63
2022/09/18 14:26:36;;;;;;;;;4.00;3.00;;;;;19.98;38.35;101182.81;5035492;28;45577;-62
2022/09/18 14:29:11;;;;;;;;;5.00;5.00;;;;;19.97;38.33;101175.78;5031014;28;45485;-61
2022/09/18 14:31:52;;;;;;;;;4.25;3.75;;;;;19.97;39.00;101151.75;5030428;28;45891;-60
2022/09/18 14:34:42;;;;;;;;;2.00;2.00;;;;;19.98;38.99;101168.63;5038209;28;45387;-62
2022/09/18 14:37:29;;;;;;;;;3.00;3.00;;;;;19.89;38.02;101155.91;5028893;28;45586;-63
2022/09/18 14:39:57;;;;;;;;;3.75;3.75;;;;;19.95;38.29;101167.00;5043116;28;45533;-61
2022/09/18 14:42:30;;;;;;;;;3.75;3.75;;;;;19.94;38.86;101162.63;5029844;28;45504;-63
2022/09/18 14:45:07;;;;;;;;;4.50;3.00;;;;;19.86;39.49;101155.13;5031920;28;45466;-60
2022/09/18 14:47:34;;;;;;;;;4.33;4.33;;;;;19.83;39.69;101170.50;5040205;28;45569;-61
2022/09/18 14:49:59;;;;;;;;;4.67;4.67;;;;;19.78;39.96;101161.94;5027610;28;45345;-60
2022/09/18 14:52:27;;;;;;;;;5.00;5.00;;;;;19.73;39.45;101154.22;5027039;28;45677;-61
2022/09/18 14:54:58;;;;;;;;;5.00;5.00;;;;;19.75;39.78;101141.63;5026715;28;45604;-63
2022/09/18 14:57:36;;;;;;;;;4.00;4.00;;;;;19.72;39.68;101141.84;5025066;28;45471;-64
2022/09/18 15:00:06;;;;;;;;;5.33;4.33;;;;;19.69;40.08;101133.16;5026356;28;45594;-62
2022/09/18 15:02:35;;;;;;;;;4.50;4.50;;;;;19.66;39.24;101142.22;5026581;28;47025;-62
2022/09/18 15:05:09;;;;;;;;;3.67;3.67;;;;;19.67;37.90;101146.63;5025626;28;45459;-61
2022/09/18 15:07:38;;;;;;;;;3.75;3.00;;;;;19.64;37.77;101136.97;5023930;28;45435;-64
2022/09/18 15:10:06;;;;;;;;;2.25;2.25;;;;;19.47;38.15;101120.31;5027975;28;45650;-62
2022/09/18 15:12:34;;;;;;;;;2.00;2.00;;;;;19.57;38.46;101137.44;5017184;28;45460;-61
2022/09/18 15:15:22;;;;;;;;;4.33;3.00;;;;;19.51;39.11;101138.72;5032758;28;45416;-60
2022/09/18 15:17:52;;;;;;;;;2.33;2.33;;;;;19.53;39.24;101133.25;5036988;28;45477;-60
2022/09/18 15:20:18;;;;;;;;;2.50;2.50;;;;;19.53;39.20;101133.25;5036443;28;45806;-60
2022/09/18 15:22:44;;;;;;;;;2.50;2.50;;;;;19.48;38.67;101138.91;5022936;28;45600;-63
2022/09/18 15:25:18;;;;;;;;;2.00;2.00;;;;;19.39;39.12;101112.81;4995624;27;45607;-68
2022/09/18 15:27:44;;;;;;;;;1.50;1.50;;;;;19.46;38.07;101124.81;4997142;28;45672;-74
2022/09/18 15:30:18;;;;;;;;;1.75;1.75;;;;;19.42;37.45;101126.81;5015931;28;45399;-72
2022/09/18 15:32:59;;;;;;;;;3.00;2.00;;;;;19.40;38.28;101111.88;5006296;28;45423;-72
2022/09/18 15:35:28;;;;;;;;;2.00;2.00;;;;;19.35;38.79;101124.63;5006735;28;45517;-71
2022/09/18 15:37:59;;;;;;;;;0.75;0.75;;;;;19.27;37.84;101118.94;4997257;28;45499;-74
2022/09/18 15:40:32;;;;;;;;;1.25;1.25;;;;;19.32;38.54;101124.84;5006082;28;45480;-70
2022/09/18 15:42:58;;;;;;;;;1.25;1.25;;;;;19.28;37.90;101110.81;5005581;28;45911;-62
2022/09/18 15:45:27;;;;;;;;;1.00;1.00;;;;;19.23;38.26;101118.25;5013273;28;45584;-71
2022/09/18 15:47:53;;;;;;;;;1.00;1.00;;;;;19.25;37.99;101113.69;4996624;28;45368;-72
2022/09/18 15:50:18;;;;;;;;;2.00;1.00;;;;;19.27;38.78;101118.94;5003407;28;45659;-69
2022/09/18 15:52:50;;;;;;;;;1.00;1.00;;;;;19.25;38.51;101124.34;5005827;28;45462;-70
2022/09/18 15:55:23;;;;;;;;;1.00;1.00;;;;;19.22;38.48;101129.03;5015011;28;45551;-62
2022/09/18 15:57:59;;;;;;;;;1.00;1.00;;;;;19.17;38.07;101132.84;5007008;28;45473;-60
2022/09/18 16:00:30;;;;;;;;;1.00;1.00;;;;;19.12;38.53;101113.59;5004896;28;45552;-60
2022/09/18 16:03:00;;;;;;;;;2.00;2.00;;;;;19.18;39.23;101129.25;5008030;28;46244;-60
2022/09/18 16:05:27;;;;;;;;;2.00;1.00;;;;;19.14;38.95;101126.84;5013965;28;45384;-60
2022/09/18 16:07:57;;;;;;;;;1.00;1.00;;;;;19.04;38.88;101120.38;5007571;28;45563;-61
2022/09/18 16:10:34;;;;;;;;;1.00;1.00;;;;;18.98;38.89;101130.47;5002028;28;45551;-60
2022/09/18 16:13:00;;;;;;;;;1.00;1.00;;;;;18.89;39.35;101119.53;5004564;28;45481;-60
2022/09/18 16:15:26;;;;;;;;;1.50;1.50;;;;;18.89;38.81;101117.72;5005817;28;45536;-58
2022/09/18 16:18:10;;;;;;;;;1.00;1.00;;;;;18.86;38.93;101130.34;5005254;28;45507;-59
2022/09/18 16:20:50;;;;;;;;;1.50;1.00;;;;;18.86;39.29;101127.69;4998601;28;45482;-60
2022/09/18 16:23:27;;;;;;;;;2.00;1.50;;;;;18.84;39.24;101121.63;5001358;28;46103;-59
2022/09/18 16:26:08;;;;;;;;;1.00;0.75;;;;;18.84;40.11;101130.47;5007388;28;45739;-71
2022/09/18 16:28:40;;;;;;;;;1.00;1.00;;;;;18.80;39.91;101128.94;5008183;28;45535;-72
2022/09/18 16:31:06;;;;;;;;;1.33;1.33;;;;;18.80;39.98;101130.75;5005545;28;45478;-67
2022/09/18 16:33:33;;;;;;;;;3.00;1.67;;;;;18.71;40.00;101125.00;5006465;28;45518;-60
2022/09/18 16:36:07;;;;;;;;;1.00;1.00;;;;;18.71;40.01;101132.13;5003696;28;46217;-61
2022/09/18 16:38:33;;;;;;;;;4.00;2.67;;;;;18.71;40.29;101127.66;5012049;28;45507;-61
2022/09/18 16:40:59;;;;;;;;;3.00;2.00;;;;;18.62;40.38;101122.03;5015354;28;45521;-59
2022/09/18 16:43:25;;;;;;;;;1.00;1.00;;;;;18.64;40.59;101141.44;5003524;28;45637;-61
2022/09/18 16:45:50;;;;;;;;;1.50;1.00;;;;;18.57;40.41;101138.31;5005750;28;45516;-62
2022/09/18 16:48:17;;;;;;;;;0.50;0.50;;;;;18.49;40.44;101138.75;5008236;28;45569;-62
2022/09/18 16:50:43;;;;;;;;;1.00;1.00;;;;;18.49;40.34;101141.41;5009990;28;45632;-62
2022/09/18 16:53:08;;;;;;;;;1.00;1.00;;;;;18.49;40.77;101146.75;5010181;28;46220;-60
2022/09/18 16:55:42;;;;;;;;;1.33;1.33;;;;;18.47;40.62;101145.13;5005659;28;45502;-62
2022/09/18 16:58:08;;;;;;;;;1.00;1.00;;;;;18.45;39.70;101150.53;5008138;28;45515;-61
2022/09/18 17:00:36;;;;;;;;;1.00;1.00;;;;;18.42;40.44;101152.53;5004816;28;45682;-62
2022/09/18 17:03:03;;;;;;;;;1.00;1.00;;;;;18.36;40.08;101143.09;5011817;28;45541;-63
2022/09/18 17:05:29;;;;;;;;;1.00;1.00;;;;;18.29;40.08;101144.41;5012355;28;45583;-66
2022/09/18 17:07:54;;;;;;;;;1.00;1.00;;;;;18.33;40.01;101157.44;5015215;28;45498;-65
2022/09/18 17:10:20;;;;;;;;;1.00;1.00;;;;;18.27;40.52;101163.16;5002729;28;45477;-68
2022/09/18 17:12:45;;;;;;;;;1.00;1.00;;;;;18.16;40.59;101154.94;4995274;28;46098;-69
2022/09/18 17:15:11;;;;;;;;;1.00;1.00;;;;;18.17;40.69;101153.97;5019409;28;45519;-67
2022/09/18 17:17:36;;;;;;;;;2.67;1.33;;;;;18.14;40.91;101156.81;5018807;28;45684;-68
2022/09/18 17:20:03;;;;;;;;;2.00;1.00;;;;;18.17;40.89;101155.78;5014891;28;45514;-63
2022/09/18 17:22:30;;;;;;;;;1.00;1.00;;;;;18.09;41.42;101169.53;5014912;28;47010;-63
2022/09/18 17:24:55;;;;;;;;;1.00;1.00;;;;;18.03;41.10;101165.44;5020122;28;45503;-62
2022/09/18 17:27:22;;;;;;;;;2.00;2.00;;;;;17.96;40.69;101157.88;5015098;28;45905;-61
2022/09/18 17:29:47;;;;;;;;;1.00;1.00;;;;;17.89;40.84;101165.34;5014690;28;45444;-69
2022/09/18 17:32:12;;;;;;;;;1.67;0.67;;;;;17.88;41.30;101168.97;5009026;28;45796;-60
2022/09/18 17:34:38;;;;;;;;;1.00;1.00;;;;;17.84;41.19;101162.97;5014711;28;45463;-68
2022/09/18 17:37:03;;;;;;;;;2.00;1.00;;;;;17.82;41.07;101175.47;5014765;28;45775;-63
2022/09/18 17:39:29;;;;;;;;;1.33;1.33;;;;;17.84;41.42;101167.44;5014818;28;45475;-63
2022/09/18 17:41:55;;;;;;;;;2.00;2.00;;;;;17.79;41.33;101169.50;5013259;28;47320;-63
2022/09/18 17:44:23;;;;;;;;;2.00;1.00;;;;;17.77;41.41;101177.50;4999958;28;45439;-62
2022/09/18 17:46:51;;;;;;;;;2.00;2.00;;;;;17.78;41.70;101183.69;4996822;28;45475;-62
2022/09/18 17:49:17;;;;;;;;;1.00;1.00;;;;;17.71;41.43;101190.31;4994905;28;45470;-63
2022/09/18 17:51:42;;;;;;;;;2.00;2.00;;;;;17.64;41.41;101195.94;4993465;28;45498;-63
2022/09/18 17:54:09;;;;;;;;;2.33;2.00;;;;;17.55;41.69;101193.81;4994811;28;45472;-64
2022/09/18 17:56:35;;;;;;;;;1.00;1.00;;;;;17.56;41.32;101197.31;4995329;28;45478;-63
2022/09/18 17:59:04;;;;;;;;;1.33;1.33;;;;;17.46;40.91;101188.97;4994625;28;45475;-63
2022/09/18 18:01:30;;;;;;;;;1.00;1.00;;;;;17.45;40.78;101203.22;4994660;28;45692;-63
2022/09/18 18:03:56;;;;;;;;;2.00;1.67;;;;;17.42;41.49;101198.09;4995237;28;45618;-63
2022/09/18 18:06:21;;;;;;;;;2.00;1.00;;;;;17.41;41.14;101199.91;4994904;28;45502;-62
2022/09/18 18:08:47;;;;;;;;;2.00;2.00;;;;;17.40;41.78;101206.13;4996213;28;45476;-62
2022/09/18 18:11:15;;;;;;;;;1.00;1.00;;;;;17.34;41.29;101197.66;5014434;28;45496;-63
2022/09/18 18:13:43;;;;;;;;;1.00;1.00;;;;;17.32;40.89;101205.69;5009183;28;45491;-63
2022/09/18 18:16:21;;;;;;;;;2.00;2.00;;;;;17.29;41.42;101200.53;4993339;28;45501;-63
2022/09/18 18:18:49;;;;;;;;;1.67;1.67;;;;;17.27;41.48;101197.09;4996475;28;45481;-62
2022/09/18 18:21:14;;;;;;;;;2.00;2.00;;;;;17.28;41.21;101209.47;5014425;28;45467;-63
2022/09/18 18:23:41;;;;;;;;;2.00;2.00;;;;;17.26;41.53;101214.00;5015140;28;45499;-63
2022/09/18 18:26:08;;;;;;;;;2.67;2.00;;;;;17.25;41.71;101220.28;5018130;28;45470;-63
2022/09/18 18:28:35;;;;;;;;;2.00;2.00;;;;;17.14;41.33;101209.31;5009241;28;45475;-66
2022/09/18 18:31:11;;;;;;;;;2.00;2.00;;;;;17.18;42.00;101218.88;4997521;28;45511;-67
2022/09/18 18:33:38;;;;;;;;;2.00;1.00;;;;;17.18;42.00;101217.06;5005536;28;45451;-67
2022/09/18 18:36:17;;;;;;;;;2.00;2.00;;;;;17.16;42.18;101218.94;5017416;28;45411;-67
2022/09/18 18:38:45;;;;;;;;;1.00;1.00;;;;;17.06;41.92;101203.56;5017543;28;45508;-67
2022/09/18 18:41:12;;;;;;;;;2.33;1.00;;;;;17.11;41.67;101217.47;5017404;28;46181;-68
2022/09/18 18:43:39;;;;;;;;;1.00;1.00;;;;;17.03;41.94;101227.63;5002462;28;45384;-69
2022/09/18 18:46:06;;;;;;;;;1.33;1.33;;;;;17.07;41.86;101239.84;5014804;28;45523;-65
2022/09/18 18:48:33;;;;;;;;;1.00;1.00;;;;;17.01;42.02;101243.69;5015540;28;45587;-68
2022/09/18 18:51:03;;;;;;;;;1.00;1.00;;;;;16.90;42.35;101224.75;5017266;28;46139;-68
2022/09/18 18:53:30;;;;;;;;;2.00;2.00;;;;;16.96;42.29;101243.06;5016492;28;45498;-68
2022/09/18 18:56:14;;;;;;;;;2.00;2.00;;;;;16.96;42.39;101245.72;5017492;28;45434;-68
2022/09/18 18:58:41;;;;;;;;;1.33;1.33;;;;;16.96;42.13;101235.94;5017608;28;45517;-68
2022/09/18 19:01:13;;;;;;;;;2.00;2.00;;;;;16.95;42.16;101247.53;5000456;28;45506;-67
2022/09/18 19:03:42;;;;;;;;;1.67;1.67;;;;;16.93;42.39;101246.72;4997949;28;45424;-67
2022/09/18 19:06:13;;;;;;;;;1.67;1.67;;;;;16.89;42.33;101249.63;4997375;28;45536;-68
2022/09/18 19:08:39;;;;;;;;;1.00;1.00;;;;;16.86;42.35;101250.63;4997332;28;45463;-68
2022/09/18 19:11:06;;;;;;;;;3.33;2.33;;;;;16.84;42.77;101255.16;4997219;28;46211;-68
2022/09/18 19:13:41;;;;;;;;;2.00;2.00;;;;;16.85;42.74;101254.25;5015283;28;45597;-67
2022/09/18 19:16:08;;;;;;;;;2.33;1.67;;;;;16.88;42.69;101267.38;5005833;28;45510;-68
2022/09/18 19:18:34;;;;;;;;;3.00;2.00;;;;;16.84;42.96;101262.28;5016469;28;45486;-67
2022/09/18 19:21:00;;;;;;;;;3.00;2.00;;;;;16.79;43.08;101259.84;5016312;28;45498;-68
2022/09/18 19:23:25;;;;;;;;;3.67;2.00;;;;;16.77;43.02;101253.78;5015069;28;45529;-68
2022/09/18 19:25:55;;;;;;;;;3.00;3.00;;;;;16.77;42.61;101261.75;5016958;28;45384;-68
2022/09/18 19:28:22;;;;;;;;;2.00;2.00;;;;;16.76;43.14;101259.97;5016938;28;45488;-68
2022/09/18 19:30:48;;;;;;;;;2.00;2.00;;;;;16.80;42.57;101269.56;5014865;28;48254;-67
2022/09/18 19:33:16;;;;;;;;;2.00;2.00;;;;;16.82;42.65;101278.31;5011751;28;45413;-68
2022/09/18 19:35:42;;;;;;;;;1.00;1.00;;;;;16.79;42.79;101275.78;5016887;28;45573;-67
2022/09/18 19:38:11;;;;;;;;;1.67;1.67;;;;;16.78;43.44;101277.59;5014538;28;45359;-67
2022/09/18 19:40:37;;;;;;;;;2.00;1.00;;;;;16.74;43.44;101278.66;5005458;28;45499;-68
2022/09/18 19:43:11;;;;;;;;;1.00;1.00;;;;;16.72;43.11;101282.31;5016858;28;45503;-67
2022/09/18 19:45:37;;;;;;;;;1.67;0.67;;;;;16.64;43.52;101268.56;5016679;28;45486;-69
2022/09/18 19:48:06;;;;;;;;;2.00;2.00;;;;;16.63;43.87;101281.00;5016643;28;45531;-68
2022/09/18 19:50:35;;;;;;;;;2.67;2.67;;;;;16.62;43.31;101276.59;5029497;28;47940;-67
2022/09/18 19:53:01;;;;;;;;;2.00;2.00;;;;;16.60;44.26;101277.63;5036364;28;45486;-68
2022/09/18 19:55:27;;;;;;;;;2.33;2.00;;;;;16.64;43.74;101280.06;5036507;28;45512;-67
2022/09/18 19:57:55;;;;;;;;;2.00;2.00;;;;;16.64;43.94;101287.16;5020597;28;45578;-66
2022/09/18 20:00:20;;;;;;;;;3.00;2.00;;;;;16.64;43.72;101292.47;5016209;28;45919;-67
2022/09/18 20:02:46;;;;;;;;;3.00;3.00;;;;;16.61;44.03;101295.28;5017987;28;45418;-67
2022/09/18 20:05:11;;;;;;;;;2.33;2.33;;;;;16.60;44.12;101301.50;5016552;28;45391;-67
2022/09/18 20:07:37;;;;;;;;;1.00;1.00;;;;;16.58;44.27;101296.28;5016353;28;45670;-67
2022/09/18 20:10:07;;;;;;;;;2.33;0.67;;;;;16.52;44.47;101286.84;5015811;28;45955;-68
2022/09/18 20:12:33;;;;;;;;;2.00;2.00;;;;;16.38;44.67;101275.16;5016364;28;45420;-68
2022/09/18 20:15:01;;;;;;;;;1.33;1.33;;;;;16.35;45.15;101284.97;5015865;28;45534;-68
2022/09/18 20:17:27;;;;;;;;;2.00;1.67;;;;;16.34;45.37;101288.59;5014415;28;45490;-67
2022/09/18 20:19:55;;;;;;;;;2.00;2.00;;;;;16.37;45.23;101286.72;5015880;28;46131;-67
2022/09/18 20:22:22;;;;;;;;;1.67;1.33;;;;;16.37;44.67;101284.94;5016141;28;45482;-68
2022/09/18 20:24:47;;;;;;;;;2.33;2.33;;;;;16.33;45.75;101286.88;5016191;28;45502;-68
2022/09/18 20:27:14;;;;;;;;;0.67;0.67;;;;;16.36;44.86;101285.84;5014716;28;45557;-68
2022/09/18 20:29:39;;;;;;;;;2.00;1.00;;;;;16.35;45.15;101284.97;5015827;28;46034;-67
2022/09/18 20:32:05;;;;;;;;;2.33;2.33;;;;;16.28;45.42;101280.94;5015784;28;45478;-67
2022/09/18 20:34:30;;;;;;;;;1.33;1.33;;;;;16.30;45.87;101284.34;5015558;28;45848;-68
2022/09/18 20:36:56;;;;;;;;;2.00;2.00;;;;;16.33;45.85;101281.56;5015535;28;45514;-68
2022/09/18 20:39:22;;;;;;;;;1.33;1.33;;;;;16.36;45.08;101288.50;5015086;28;46189;-68
2022/09/18 20:41:49;;;;;;;;;1.00;1.00;;;;;16.34;45.47;101282.44;5015511;28;45392;-68
2022/09/18 20:44:16;;;;;;;;;1.33;1.33;;;;;16.35;45.74;101286.78;5004082;28;45593;-68
2022/09/18 20:46:42;;;;;;;;;4.67;4.00;;;;;16.23;46.66;101280.28;5007953;28;45672;-68
2022/09/18 20:49:09;;;;;;;;;1.00;1.00;;;;;16.28;45.63;101283.59;5015573;28;45483;-68
2022/09/18 20:51:35;;;;;;;;;3.00;3.00;;;;;16.35;45.85;101284.97;5012367;28;45550;-68
2022/09/18 20:54:02;;;;;;;;;1.67;1.67;;;;;16.37;45.90;101292.03;5014747;28;45526;-67
2022/09/18 20:56:34;;;;;;;;;1.67;1.67;;;;;16.36;45.85;101293.81;5015928;28;45577;-66
2022/09/18 20:59:03;;;;;;;;;1.00;1.00;;;;;16.34;45.38;101287.72;5014154;28;47487;-67
2022/09/18 21:01:29;;;;;;;;;0.67;0.67;;;;;16.24;45.89;101273.19;5015627;28;45517;-68
2022/09/18 21:04:00;;;;;;;;;6.67;6.67;;;;;16.22;46.08;101286.50;5004750;28;45482;-69
2022/09/18 21:06:30;;;;;;;;;2.67;2.67;;;;;16.23;46.63;101285.59;4995640;28;45354;-67
2022/09/18 21:08:57;;;;;;;;;1.00;1.00;;;;;16.17;46.23;101269.09;5001692;28;46051;-70
2022/09/18 21:11:27;;;;;;;;;1.00;1.00;;;;;16.16;45.89;101275.34;5015705;28;45371;-68
2022/09/18 21:14:02;;;;;;;;;1.00;1.00;;;;;16.16;46.25;101289.47;5015656;28;45502;-68
2022/09/18 21:16:30;;;;;;;;;2.33;2.33;;;;;16.14;46.52;101280.72;5015604;28;45567;-67
2022/09/18 21:18:57;;;;;;;;;3.67;2.33;;;;;16.10;46.21;101285.31;5013764;28;46179;-67
2022/09/18 21:21:25;;;;;;;;;2.33;1.33;;;;;16.16;46.51;101285.97;5013629;28;45606;-68
2022/09/18 21:23:59;;;;;;;;;1.00;1.00;;;;;16.14;45.89;101288.66;5013979;28;45451;-68
2022/09/18 21:26:40;;;;;;;;;1.67;1.67;;;;;16.12;46.51;101293.22;5015397;28;45537;-68
2022/09/18 21:29:13;;;;;;;;;2.00;2.00;;;;;16.07;47.52;101301.38;5014984;28;45470;-67
2022/09/18 21:31:43;;;;;;;;;3.33;1.67;;;;;16.08;46.91;101304.91;5000052;28;45450;-67
2022/09/18 21:34:14;;;;;;;;;2.00;2.00;;;;;16.04;46.98;101298.00;5003510;28;45506;-67
2022/09/18 21:36:42;;;;;;;;;1.67;1.67;;;;;15.89;47.63;101283.66;5014978;28;45488;-67
2022/09/18 21:39:09;;;;;;;;;1.00;1.00;;;;;16.01;47.29;101309.66;5014952;28;46143;-69
2022/09/18 21:41:36;;;;;;;;;2.67;2.67;;;;;15.94;47.22;101297.59;5013699;28;45813;-68
2022/09/18 21:44:05;;;;;;;;;0.67;0.67;;;;;15.98;47.54;101296.50;5015214;28;45549;-67
2022/09/18 21:46:34;;;;;;;;;1.67;1.67;;;;;15.93;47.21;101293.19;5001255;28;45621;-68
2022/09/18 21:49:02;;;;;;;;;3.33;0.67;;;;;16.02;47.10;101300.75;4995188;28;46306;-67
2022/09/18 21:51:28;;;;;;;;;1.00;0.67;;;;;15.92;46.87;101291.47;4995162;28;45530;-67
2022/09/18 21:53:53;;;;;;;;;3.33;1.67;;;;;15.99;46.93;101302.69;4995290;28;45500;-68
2022/09/18 21:56:19;;;;;;;;;2.33;2.33;;;;;15.95;47.18;101301.09;5004975;28;45452;-67
2022/09/18 21:58:46;;;;;;;;;1.67;1.67;;;;;15.88;47.37;101289.91;5015581;28;45464;-68
2022/09/18 22:01:17;;;;;;;;;3.33;2.33;;;;;15.95;48.00;101291.34;5018388;28;45562;-67
2022/09/18 22:03:55;;;;;;;;;2.67;2.67;;;;;15.95;47.49;101301.94;5019174;28;45471;-67
2022/09/18 22:06:23;;;;;;;;;1.67;1.67;;;;;15.94;47.81;101305.53;5018338;28;45544;-68
2022/09/18 22:08:52;;;;;;;;;1.67;1.67;;;;;15.89;47.21;101289.81;5014100;28;45539;-67
2022/09/18 22:11:19;;;;;;;;;2.67;2.67;;;;;15.87;48.51;101304.94;4998461;28;45487;-67
2022/09/18 22:13:46;;;;;;;;;2.33;2.33;;;;;15.82;48.40;101287.53;5009079;28;45624;-67
2022/09/18 22:16:11;;;;;;;;;1.67;1.67;;;;;15.86;47.79;101297.09;5018198;28;45565;-67
2022/09/18 22:18:39;;;;;;;;;2.33;2.33;;;;;15.72;47.72;101268.53;5016754;28;47985;-67
2022/09/18 22:21:04;;;;;;;;;2.33;2.33;;;;;15.86;48.25;101287.31;5018090;28;45427;-66
2022/09/18 22:23:31;;;;;;;;;1.33;1.33;;;;;15.85;47.84;101290.91;5017631;28;45426;-66
2022/09/18 22:26:03;;;;;;;;;3.00;2.33;;;;;15.83;48.52;101291.91;5017080;28;45590;-68
2022/09/18 22:28:29;;;;;;;;;4.67;3.67;;;;;15.83;48.08;101281.31;5017230;28;45998;-68
2022/09/18 22:30:55;;;;;;;;;2.67;2.67;;;;;15.88;47.53;101288.13;5017907;28;45878;-69
2022/09/18 22:33:20;;;;;;;;;2.33;2.33;;;;;15.87;48.44;101289.03;5017901;28;45505;-68
2022/09/18 22:35:46;;;;;;;;;2.67;2.67;;;;;15.86;47.95;101289.97;5017266;28;45689;-68
2022/09/18 22:38:11;;;;;;;;;4.33;3.67;;;;;15.84;48.41;101283.88;5017086;28;47248;-68
2022/09/18 22:40:36;;;;;;;;;3.33;3.33;;;;;15.87;48.17;101297.00;5000946;28;45487;-68
2022/09/18 22:43:02;;;;;;;;;4.67;3.33;;;;;15.80;48.58;101286.75;5016143;28;45779;-69
2022/09/18 22:45:27;;;;;;;;;5.33;3.67;;;;;15.84;47.90;101305.09;5017338;28;45677;-68
2022/09/18 22:47:52;;;;;;;;;4.00;4.00;;;;;15.75;48.37;101296.72;5017231;28;45490;-69
2022/09/18 22:50:18;;;;;;;;;4.67;4.67;;;;;15.77;48.69;101303.69;5011884;28;45584;-69
2022/09/18 22:52:43;;;;;;;;;4.67;4.67;;;;;15.60;49.57;101285.81;4997909;28;45641;-68
2022/09/18 22:55:08;;;;;;;;;5.00;4.00;;;;;15.63;49.60;101298.09;4998103;28;45635;-68
2022/09/18 22:57:34;;;;;;;;;6.33;5.00;;;;;15.64;48.94;101305.97;4997899;28;46155;-68
2022/09/18 22:59:59;;;;;;;;;4.00;4.00;;;;;15.58;49.57;101290.34;4996445;28;45465;-69
2022/09/18 23:02:24;;;;;;;;;4.00;4.00;;;;;15.59;49.76;101300.03;5006652;28;45511;-68
2022/09/18 23:04:50;;;;;;;;;5.33;3.67;;;;;15.56;49.84;101302.81;5018279;28;45782;-69
2022/09/18 23:07:17;;;;;;;;;4.00;4.00;;;;;15.59;50.04;101302.69;5017368;28;46114;-68
2022/09/18 23:09:42;;;;;;;;;4.00;4.00;;;;;15.44;50.49;101290.94;5015593;28;45516;-68
2022/09/18 23:12:07;;;;;;;;;5.00;5.00;;;;;15.46;50.07;101289.09;5005129;28;46230;-68
2022/09/18 23:14:33;;;;;;;;;4.33;3.33;;;;;15.56;49.79;101302.81;4997527;28;45427;-68
2022/09/18 23:16:59;;;;;;;;;6.00;6.00;;;;;15.53;50.36;101299.41;4997196;28;46070;-69
2022/09/18 23:19:27;;;;;;;;;2.00;2.00;;;;;15.41;50.64;101300.84;5003492;28;45583;-69
2022/09/18 23:21:53;;;;;;;;;5.00;4.67;;;;;15.39;50.00;101294.75;5017147;28;45481;-69
2022/09/18 23:24:21;;;;;;;;;4.00;4.00;;;;;15.41;49.96;101298.19;5017187;28;45486;-69
2022/09/18 23:26:48;;;;;;;;;4.00;4.00;;;;;15.43;50.14;101302.50;5016895;28;46185;-69
2022/09/18 23:29:17;;;;;;;;;2.33;2.33;;;;;15.48;49.77;101298.78;5015559;28;45432;-68
2022/09/18 23:31:45;;;;;;;;;4.00;4.00;;;;;15.48;50.04;101299.66;5016866;28;45528;-69
2022/09/18 23:34:18;;;;;;;;;3.00;3.00;;;;;15.47;50.06;101297.91;5001918;28;45432;-68
2022/09/18 23:36:46;;;;;;;;;4.00;4.00;;;;;15.41;50.38;101292.88;4996901;28;45519;-69
2022/09/18 23:39:15;;;;;;;;;3.00;3.00;;;;;15.44;50.53;101293.59;4997689;28;45445;-69
2022/09/18 23:41:41;;;;;;;;;4.67;4.67;;;;;15.43;50.67;101299.00;4996768;28;45499;-68
2022/09/18 23:44:08;;;;;;;;;8.33;5.33;;;;;15.34;50.21;101287.00;4996975;28;45420;-68
2022/09/18 23:46:34;;;;;;;;;5.00;5.00;;;;;15.38;51.28;101291.22;5002000;28;45529;-68
2022/09/18 23:48:59;;;;;;;;;5.00;4.00;;;;;15.42;50.56;101292.84;5016612;28;45392;-68
2022/09/18 23:51:30;;;;;;;;;5.00;5.00;;;;;15.38;51.52;101295.69;5017081;28;45411;-68
2022/09/18 23:53:58;;;;;;;;;5.00;5.00;;;;;15.43;51.63;101297.19;5016458;28;45492;-69
2022/09/18 23:56:24;;;;;;;;;5.67;4.67;;;;;15.43;50.67;101307.78;5016584;28;46072;-69
2022/09/18 23:58:54;;;;;;;;;3.33;3.33;;;;;15.34;51.27;101300.25;5016520;28;45491;-69
